sensor_id;sensor_type;location;lat;lon;timestamp;temperature;humidity
5901;DHT22;2976;49.764;9.796;2023-03-11T00:00:33;1.40;99.90
5901;DHT22;2976;49.764;9.796;2023-03-11T00:03:00;1.40;99.90
5901;DHT22;2976;49.764;9.796;2023-03-11T00:05:35;1.40;99.90
5901;DHT22;2976;49.764;9.796;2023-03-11T00:08:01;1.40;99.90
5901;DHT22;2976;49.764;9.796;2023-03-11T00:10:33;1.40;99.90
5901;DHT22;2976;49.764;9.796;2023-03-11T00:12:59;1.30;99.90
5901;DHT22;2976;49.764;9.796;2023-03-11T00:15:26;1.20;99.90
5901;DHT22;2976;49.764;9.796;2023-03-11T00:17:52;1.20;99.90
5901;DHT22;2976;49.764;9.796;2023-03-11T00:20:24;1.20;99.90
5901;DHT22;2976;49.764;9.796;2023-03-11T00:22:51;1.20;99.90
5901;DHT22;2976;49.764;9.796;2023-03-11T00:25:17;1.10;99.90
5901;DHT22;2976;49.764;9.796;2023-03-11T00:27:43;1.10;99.90
5901;DHT22;2976;49.764;9.796;2023-03-11T00:30:10;1.10;99.90
5901;DHT22;2976;49.764;9.796;2023-03-11T00:32:35;1.10;99.90
5901;DHT22;2976;49.764;9.796;2023-03-11T00:35:01;1.10;99.90
5901;DHT22;2976;49.764;9.796;2023-03-11T00:37:27;1.10;99.90
5901;DHT22;2976;49.764;9.796;2023-03-11T00:39:52;1.10;99.90
5901;DHT22;2976;49.764;9.796;2023-03-11T00:42:18;1.00;99.90
5901;DHT22;2976;49.764;9.796;2023-03-11T00:44:43;1.00;99.90
5901;DHT22;2976;49.764;9.796;2023-03-11T00:47:10;1.00;99.90
5901;DHT22;2976;49.764;9.796;2023-03-11T00:49:35;0.90;99.90
5901;DHT22;2976;49.764;9.796;2023-03-11T00:52:01;0.90;99.90
5901;DHT22;2976;49.764;9.796;2023-03-11T00:54:27;0.90;99.90
5901;DHT22;2976;49.764;9.796;2023-03-11T00:56:52;0.90;99.90
5901;DHT22;2976;49.764;9.796;2023-03-11T00:59:18;0.90;99.90
5901;DHT22;2976;49.764;9.796;2023-03-11T01:01:43;0.90;99.90
5901;DHT22;2976;49.764;9.796;2023-03-11T01:04:09;0.90;99.90
5901;DHT22;2976;49.764;9.796;2023-03-11T01:06:34;0.90;99.90
5901;DHT22;2976;49.764;9.796;2023-03-11T01:09:00;0.90;99.90
5901;DHT22;2976;49.764;9.796;2023-03-11T01:11:25;0.80;99.90
5901;DHT22;2976;49.764;9.796;2023-03-11T01:13:51;0.80;99.90
5901;DHT22;2976;49.764;9.796;2023-03-11T01:16:16;0.80;99.90
5901;DHT22;2976;49.764;9.796;2023-03-11T01:18:42;0.80;99.90
5901;DHT22;2976;49.764;9.796;2023-03-11T01:21:07;0.80;99.90
5901;DHT22;2976;49.764;9.796;2023-03-11T01:23:33;0.80;99.90
5901;DHT22;2976;49.764;9.796;2023-03-11T01:25:58;0.70;99.90
5901;DHT22;2976;49.764;9.796;2023-03-11T01:28:24;0.70;99.90
5901;DHT22;2976;49.764;9.796;2023-03-11T01:30:50;0.70;99.90
5901;DHT22;2976;49.764;9.796;2023-03-11T01:33:17;0.70;99.90
5901;DHT22;2976;49.764;9.796;2023-03-11T01:35:43;0.70;99.90
5901;DHT22;2976;49.764;9.796;2023-03-11T01:38:10;0.60;99.90
5901;DHT22;2976;49.764;9.796;2023-03-11T01:40:40;0.70;99.90
5901;DHT22;2976;49.764;9.796;2023-03-11T01:46:17;0.60;99.90
5901;DHT22;2976;49.764;9.796;2023-03-11T01:48:55;0.60;99.90
5901;DHT22;2976;49.764;9.796;2023-03-11T01:51:41;0.60;99.90
5901;DHT22;2976;49.764;9.796;2023-03-11T01:54:17;0.60;99.90
5901;DHT22;2976;49.764;9.796;2023-03-11T01:56:45;0.60;99.90
5901;DHT22;2976;49.764;9.796;2023-03-11T01:59:14;0.60;99.90
5901;DHT22;2976;49.764;9.796;2023-03-11T02:04:38;0.50;99.90
5901;DHT22;2976;49.764;9.796;2023-03-11T02:07:06;0.50;99.90
5901;DHT22;2976;49.764;9.796;2023-03-11T02:09:32;0.50;99.90
5901;DHT22;2976;49.764;9.796;2023-03-11T02:11:58;0.40;99.90
5901;DHT22;2976;49.764;9.796;2023-03-11T02:14:24;0.40;99.90
5901;DHT22;2976;49.764;9.796;2023-03-11T02:16:52;0.40;99.90
5901;DHT22;2976;49.764;9.796;2023-03-11T02:22:19;0.50;99.90
5901;DHT22;2976;49.764;9.796;2023-03-11T02:27:21;0.40;99.90
5901;DHT22;2976;49.764;9.796;2023-03-11T02:29:48;0.50;99.90
5901;DHT22;2976;49.764;9.796;2023-03-11T02:32:16;0.50;99.90
5901;DHT22;2976;49.764;9.796;2023-03-11T02:34:42;0.50;99.90
5901;DHT22;2976;49.764;9.796;2023-03-11T02:37:10;0.40;99.90
5901;DHT22;2976;49.764;9.796;2023-03-11T02:42:27;0.40;99.90
5901;DHT22;2976;49.764;9.796;2023-03-11T02:45:11;0.40;99.90
5901;DHT22;2976;49.764;9.796;2023-03-11T02:47:38;0.40;99.90
5901;DHT22;2976;49.764;9.796;2023-03-11T02:50:06;0.40;99.90
5901;DHT22;2976;49.764;9.796;2023-03-11T02:52:33;0.40;99.90
5901;DHT22;2976;49.764;9.796;2023-03-11T02:54:59;0.40;99.90
5901;DHT22;2976;49.764;9.796;2023-03-11T02:57:25;0.40;99.90
5901;DHT22;2976;49.764;9.796;2023-03-11T02:59:50;0.40;99.90
5901;DHT22;2976;49.764;9.796;2023-03-11T03:02:16;0.40;99.90
5901;DHT22;2976;49.764;9.796;2023-03-11T03:04:42;0.40;99.90
5901;DHT22;2976;49.764;9.796;2023-03-11T03:07:07;0.40;99.90
5901;DHT22;2976;49.764;9.796;2023-03-11T03:09:34;0.40;99.90
5901;DHT22;2976;49.764;9.796;2023-03-11T03:12:00;0.30;99.90
5901;DHT22;2976;49.764;9.796;2023-03-11T03:14:25;0.30;99.90
5901;DHT22;2976;49.764;9.796;2023-03-11T03:16:51;0.30;99.90
5901;DHT22;2976;49.764;9.796;2023-03-11T03:19:16;0.30;99.90
5901;DHT22;2976;49.764;9.796;2023-03-11T03:21:42;0.30;99.90
5901;DHT22;2976;49.764;9.796;2023-03-11T03:24:07;0.30;99.90
5901;DHT22;2976;49.764;9.796;2023-03-11T03:26:33;0.30;99.90
5901;DHT22;2976;49.764;9.796;2023-03-11T03:28:58;0.30;99.90
5901;DHT22;2976;49.764;9.796;2023-03-11T03:31:24;0.30;99.90
5901;DHT22;2976;49.764;9.796;2023-03-11T03:33:50;0.30;99.90
5901;DHT22;2976;49.764;9.796;2023-03-11T03:36:15;0.30;99.90
5901;DHT22;2976;49.764;9.796;2023-03-11T03:38:41;0.30;99.90
5901;DHT22;2976;49.764;9.796;2023-03-11T03:41:07;0.30;99.90
5901;DHT22;2976;49.764;9.796;2023-03-11T03:43:33;0.30;99.90
5901;DHT22;2976;49.764;9.796;2023-03-11T03:46:01;0.30;99.90
5901;DHT22;2976;49.764;9.796;2023-03-11T03:48:27;0.40;99.90
5901;DHT22;2976;49.764;9.796;2023-03-11T03:50:53;0.30;99.90
5901;DHT22;2976;49.764;9.796;2023-03-11T03:53:19;0.30;99.90
5901;DHT22;2976;49.764;9.796;2023-03-11T03:55:45;0.30;99.90
5901;DHT22;2976;49.764;9.796;2023-03-11T03:58:10;0.30;99.90
5901;DHT22;2976;49.764;9.796;2023-03-11T04:00:36;0.30;99.90
5901;DHT22;2976;49.764;9.796;2023-03-11T04:03:02;0.20;99.90
5901;DHT22;2976;49.764;9.796;2023-03-11T04:05:28;0.20;99.90
5901;DHT22;2976;49.764;9.796;2023-03-11T04:07:54;0.20;99.90
5901;DHT22;2976;49.764;9.796;2023-03-11T04:10:19;0.30;99.90
5901;DHT22;2976;49.764;9.796;2023-03-11T04:12:45;0.20;99.90
5901;DHT22;2976;49.764;9.796;2023-03-11T04:15:11;0.30;99.90
5901;DHT22;2976;49.764;9.796;2023-03-11T04:17:37;0.30;99.90
5901;DHT22;2976;49.764;9.796;2023-03-11T04:20:03;0.30;99.90
5901;DHT22;2976;49.764;9.796;2023-03-11T04:22:31;0.20;99.90
5901;DHT22;2976;49.764;9.796;2023-03-11T04:24:57;0.20;99.90
5901;DHT22;2976;49.764;9.796;2023-03-11T04:27:22;0.20;99.90
5901;DHT22;2976;49.764;9.796;2023-03-11T04:29:48;0.20;99.90
5901;DHT22;2976;49.764;9.796;2023-03-11T04:32:13;0.20;99.90
5901;DHT22;2976;49.764;9.796;2023-03-11T04:34:39;0.20;99.90
5901;DHT22;2976;49.764;9.796;2023-03-11T04:37:05;0.20;99.90
5901;DHT22;2976;49.764;9.796;2023-03-11T04:39:30;0.20;99.90
5901;DHT22;2976;49.764;9.796;2023-03-11T04:41:56;0.10;99.90
5901;DHT22;2976;49.764;9.796;2023-03-11T04:44:21;0.10;99.90
5901;DHT22;2976;49.764;9.796;2023-03-11T04:46:47;0.10;99.90
5901;DHT22;2976;49.764;9.796;2023-03-11T04:49:12;0.10;99.90
5901;DHT22;2976;49.764;9.796;2023-03-11T04:51:38;0.10;99.90
5901;DHT22;2976;49.764;9.796;2023-03-11T04:54:04;0.00;99.90
5901;DHT22;2976;49.764;9.796;2023-03-11T04:56:29;0.00;99.90
5901;DHT22;2976;49.764;9.796;2023-03-11T04:58:55;0.00;99.90
5901;DHT22;2976;49.764;9.796;2023-03-11T05:01:20;0.00;99.90
5901;DHT22;2976;49.764;9.796;2023-03-11T05:03:46;0.00;99.90
5901;DHT22;2976;49.764;9.796;2023-03-11T05:06:11;0.00;99.90
5901;DHT22;2976;49.764;9.796;2023-03-11T05:08:37;0.00;99.90
5901;DHT22;2976;49.764;9.796;2023-03-11T05:11:03;0.00;99.90
5901;DHT22;2976;49.764;9.796;2023-03-11T05:13:28;0.00;99.90
5901;DHT22;2976;49.764;9.796;2023-03-11T05:15:54;0.00;99.90
5901;DHT22;2976;49.764;9.796;2023-03-11T05:18:20;0.00;99.90
5901;DHT22;2976;49.764;9.796;2023-03-11T05:20:46;0.00;99.90
5901;DHT22;2976;49.764;9.796;2023-03-11T05:23:11;0.00;99.90
5901;DHT22;2976;49.764;9.796;2023-03-11T05:25:37;0.00;99.90
5901;DHT22;2976;49.764;9.796;2023-03-11T05:28:03;0.00;99.90
5901;DHT22;2976;49.764;9.796;2023-03-11T05:30:28;0.10;99.90
5901;DHT22;2976;49.764;9.796;2023-03-11T05:32:54;0.10;99.90
5901;DHT22;2976;49.764;9.796;2023-03-11T05:35:21;0.10;99.90
5901;DHT22;2976;49.764;9.796;2023-03-11T05:37:47;0.10;99.90
5901;DHT22;2976;49.764;9.796;2023-03-11T05:40:14;0.10;99.90
5901;DHT22;2976;49.764;9.796;2023-03-11T05:42:40;0.10;99.90
5901;DHT22;2976;49.764;9.796;2023-03-11T05:45:07;0.10;99.90
5901;DHT22;2976;49.764;9.796;2023-03-11T05:47:33;0.10;99.90
5901;DHT22;2976;49.764;9.796;2023-03-11T05:49:58;0.10;99.90
5901;DHT22;2976;49.764;9.796;2023-03-11T05:52:24;0.10;99.90
5901;DHT22;2976;49.764;9.796;2023-03-11T05:54:50;0.10;99.90
5901;DHT22;2976;49.764;9.796;2023-03-11T05:57:17;0.10;99.90
5901;DHT22;2976;49.764;9.796;2023-03-11T05:59:43;0.10;99.90
5901;DHT22;2976;49.764;9.796;2023-03-11T06:02:08;0.10;99.90
5901;DHT22;2976;49.764;9.796;2023-03-11T06:04:34;0.10;99.90
5901;DHT22;2976;49.764;9.796;2023-03-11T06:06:59;0.10;99.90
5901;DHT22;2976;49.764;9.796;2023-03-11T06:09:25;0.10;99.90
5901;DHT22;2976;49.764;9.796;2023-03-11T06:11:50;0.10;99.90
5901;DHT22;2976;49.764;9.796;2023-03-11T06:14:16;0.10;99.90
5901;DHT22;2976;49.764;9.796;2023-03-11T06:16:42;0.10;99.90
5901;DHT22;2976;49.764;9.796;2023-03-11T06:19:07;0.00;99.90
5901;DHT22;2976;49.764;9.796;2023-03-11T06:21:33;0.10;99.90
5901;DHT22;2976;49.764;9.796;2023-03-11T06:23:59;0.10;99.90
5901;DHT22;2976;49.764;9.796;2023-03-11T06:26:24;0.10;99.90
5901;DHT22;2976;49.764;9.796;2023-03-11T06:28:51;0.10;99.90
5901;DHT22;2976;49.764;9.796;2023-03-11T06:31:25;0.00;99.90
5901;DHT22;2976;49.764;9.796;2023-03-11T06:33:52;0.00;99.90
5901;DHT22;2976;49.764;9.796;2023-03-11T06:36:20;0.00;99.90
5901;DHT22;2976;49.764;9.796;2023-03-11T06:38:46;0.10;99.90
5901;DHT22;2976;49.764;9.796;2023-03-11T06:41:13;0.10;99.90
5901;DHT22;2976;49.764;9.796;2023-03-11T06:43:39;0.10;99.90
5901;DHT22;2976;49.764;9.796;2023-03-11T06:46:13;0.10;99.90
5901;DHT22;2976;49.764;9.796;2023-03-11T06:48:39;0.10;99.90
5901;DHT22;2976;49.764;9.796;2023-03-11T06:51:05;0.10;99.90
5901;DHT22;2976;49.764;9.796;2023-03-11T06:53:31;0.10;99.90
5901;DHT22;2976;49.764;9.796;2023-03-11T06:56:02;0.10;99.90
5901;DHT22;2976;49.764;9.796;2023-03-11T06:58:29;0.20;99.90
5901;DHT22;2976;49.764;9.796;2023-03-11T07:00:58;0.20;99.90
5901;DHT22;2976;49.764;9.796;2023-03-11T07:03:24;0.30;99.90
5901;DHT22;2976;49.764;9.796;2023-03-11T07:05:50;0.40;99.90
5901;DHT22;2976;49.764;9.796;2023-03-11T07:08:16;0.60;99.90
5901;DHT22;2976;49.764;9.796;2023-03-11T07:10:42;0.70;99.90
5901;DHT22;2976;49.764;9.796;2023-03-11T07:13:07;0.70;99.90
5901;DHT22;2976;49.764;9.796;2023-03-11T07:15:33;0.80;99.90
5901;DHT22;2976;49.764;9.796;2023-03-11T07:17:59;1.00;99.90
5901;DHT22;2976;49.764;9.796;2023-03-11T07:20:25;1.20;99.90
5901;DHT22;2976;49.764;9.796;2023-03-11T07:22:51;1.40;99.90
5901;DHT22;2976;49.764;9.796;2023-03-11T07:25:16;1.60;99.90
5901;DHT22;2976;49.764;9.796;2023-03-11T07:27:42;1.60;99.90
5901;DHT22;2976;49.764;9.796;2023-03-11T07:30:08;1.50;99.90
5901;DHT22;2976;49.764;9.796;2023-03-11T07:32:33;1.40;99.90
5901;DHT22;2976;49.764;9.796;2023-03-11T07:34:59;1.20;99.90
5901;DHT22;2976;49.764;9.796;2023-03-11T07:37:24;1.10;99.90
5901;DHT22;2976;49.764;9.796;2023-03-11T07:39:50;0.90;99.90
5901;DHT22;2976;49.764;9.796;2023-03-11T07:42:15;0.90;99.90
5901;DHT22;2976;49.764;9.796;2023-03-11T07:44:41;1.00;99.90
5901;DHT22;2976;49.764;9.796;2023-03-11T07:47:06;1.20;99.90
5901;DHT22;2976;49.764;9.796;2023-03-11T07:49:32;1.40;99.90
5901;DHT22;2976;49.764;9.796;2023-03-11T07:51:58;1.50;99.90
5901;DHT22;2976;49.764;9.796;2023-03-11T07:54:23;1.60;99.90
5901;DHT22;2976;49.764;9.796;2023-03-11T07:56:49;1.70;99.90
5901;DHT22;2976;49.764;9.796;2023-03-11T07:59:14;1.90;99.90
5901;DHT22;2976;49.764;9.796;2023-03-11T08:01:40;2.10;99.90
5901;DHT22;2976;49.764;9.796;2023-03-11T08:04:12;2.10;99.90
5901;DHT22;2976;49.764;9.796;2023-03-11T08:06:40;2.20;99.90
5901;DHT22;2976;49.764;9.796;2023-03-11T08:09:07;2.40;99.90
5901;DHT22;2976;49.764;9.796;2023-03-11T08:11:34;2.50;99.90
5901;DHT22;2976;49.764;9.796;2023-03-11T08:14:00;2.30;99.90
5901;DHT22;2976;49.764;9.796;2023-03-11T08:16:26;2.20;99.90
5901;DHT22;2976;49.764;9.796;2023-03-11T08:18:52;2.20;99.90
5901;DHT22;2976;49.764;9.796;2023-03-11T08:21:23;2.30;99.90
5901;DHT22;2976;49.764;9.796;2023-03-11T08:23:50;2.10;99.90
5901;DHT22;2976;49.764;9.796;2023-03-11T08:26:18;1.90;99.90
5901;DHT22;2976;49.764;9.796;2023-03-11T08:28:44;1.80;99.90
5901;DHT22;2976;49.764;9.796;2023-03-11T08:31:17;1.90;99.90
5901;DHT22;2976;49.764;9.796;2023-03-11T08:33:45;2.40;99.90
5901;DHT22;2976;49.764;9.796;2023-03-11T08:36:11;3.00;99.90
5901;DHT22;2976;49.764;9.796;2023-03-11T08:38:37;3.30;99.90
5901;DHT22;2976;49.764;9.796;2023-03-11T08:41:03;3.00;99.90
5901;DHT22;2976;49.764;9.796;2023-03-11T08:43:29;2.40;99.90
5901;DHT22;2976;49.764;9.796;2023-03-11T08:45:55;1.80;99.90
5901;DHT22;2976;49.764;9.796;2023-03-11T08:48:20;1.50;99.90
5901;DHT22;2976;49.764;9.796;2023-03-11T08:50:47;1.20;99.90
5901;DHT22;2976;49.764;9.796;2023-03-11T08:53:13;0.90;99.90
5901;DHT22;2976;49.764;9.796;2023-03-11T08:55:38;0.60;99.90
5901;DHT22;2976;49.764;9.796;2023-03-11T08:58:04;0.50;99.90
5901;DHT22;2976;49.764;9.796;2023-03-11T09:00:29;0.50;99.90
5901;DHT22;2976;49.764;9.796;2023-03-11T09:02:55;0.60;99.90
5901;DHT22;2976;49.764;9.796;2023-03-11T09:05:21;0.70;99.90
5901;DHT22;2976;49.764;9.796;2023-03-11T09:07:46;0.90;99.90
5901;DHT22;2976;49.764;9.796;2023-03-11T09:10:13;1.20;99.90
5901;DHT22;2976;49.764;9.796;2023-03-11T09:12:39;1.40;99.90
5901;DHT22;2976;49.764;9.796;2023-03-11T09:15:05;1.60;99.90
5901;DHT22;2976;49.764;9.796;2023-03-11T09:17:31;1.70;99.90
5901;DHT22;2976;49.764;9.796;2023-03-11T09:19:57;1.90;99.90
5901;DHT22;2976;49.764;9.796;2023-03-11T09:22:22;2.10;99.90
5901;DHT22;2976;49.764;9.796;2023-03-11T09:24:48;2.10;99.90
5901;DHT22;2976;49.764;9.796;2023-03-11T09:27:13;2.20;99.90
5901;DHT22;2976;49.764;9.796;2023-03-11T09:29:40;2.40;99.90
5901;DHT22;2976;49.764;9.796;2023-03-11T09:32:06;2.50;99.90
5901;DHT22;2976;49.764;9.796;2023-03-11T09:34:31;2.50;99.90
5901;DHT22;2976;49.764;9.796;2023-03-11T09:36:57;2.60;99.90
5901;DHT22;2976;49.764;9.796;2023-03-11T09:39:23;2.60;99.90
5901;DHT22;2976;49.764;9.796;2023-03-11T09:42:01;2.90;99.90
5901;DHT22;2976;49.764;9.796;2023-03-11T09:44:44;2.80;99.90
5901;DHT22;2976;49.764;9.796;2023-03-11T09:47:36;2.80;99.90
5901;DHT22;2976;49.764;9.796;2023-03-11T09:53:21;2.80;99.90
5901;DHT22;2976;49.764;9.796;2023-03-11T09:55:55;2.70;99.90
5901;DHT22;2976;49.764;9.796;2023-03-11T09:58:53;2.60;99.90
5901;DHT22;2976;49.764;9.796;2023-03-11T10:03:49;2.40;99.90
5901;DHT22;2976;49.764;9.796;2023-03-11T10:22:45;2.30;99.90
5901;DHT22;2976;49.764;9.796;2023-03-11T10:28:09;2.30;99.90
5901;DHT22;2976;49.764;9.796;2023-03-11T10:30:44;2.40;99.90
5901;DHT22;2976;49.764;9.796;2023-03-11T10:35:50;2.40;99.90
5901;DHT22;2976;49.764;9.796;2023-03-11T10:40:46;2.50;99.90
5901;DHT22;2976;49.764;9.796;2023-03-11T10:43:16;2.50;99.90
5901;DHT22;2976;49.764;9.796;2023-03-11T10:45:44;2.50;99.90
5901;DHT22;2976;49.764;9.796;2023-03-11T10:48:16;2.50;99.90
5901;DHT22;2976;49.764;9.796;2023-03-11T10:50:56;2.60;99.90
5901;DHT22;2976;49.764;9.796;2023-03-11T10:53:22;2.70;99.90
5901;DHT22;2976;49.764;9.796;2023-03-11T10:55:54;2.60;99.90
5901;DHT22;2976;49.764;9.796;2023-03-11T10:58:28;2.50;99.90
5901;DHT22;2976;49.764;9.796;2023-03-11T11:01:00;2.60;99.90
5901;DHT22;2976;49.764;9.796;2023-03-11T11:03:26;2.70;99.90
5901;DHT22;2976;49.764;9.796;2023-03-11T11:06:06;3.00;99.90
5901;DHT22;2976;49.764;9.796;2023-03-11T11:08:44;3.30;99.90
5901;DHT22;2976;49.764;9.796;2023-03-11T11:11:21;3.40;99.90
5901;DHT22;2976;49.764;9.796;2023-03-11T11:13:55;3.30;99.90
5901;DHT22;2976;49.764;9.796;2023-03-11T11:16:22;3.40;99.90
5901;DHT22;2976;49.764;9.796;2023-03-11T11:19:17;3.50;99.90
5901;DHT22;2976;49.764;9.796;2023-03-11T11:21:48;3.10;99.90
5901;DHT22;2976;49.764;9.796;2023-03-11T11:24:28;2.90;99.90
5901;DHT22;2976;49.764;9.796;2023-03-11T11:29:43;2.80;99.90
5901;DHT22;2976;49.764;9.796;2023-03-11T11:32:24;2.70;99.90
5901;DHT22;2976;49.764;9.796;2023-03-11T11:37:21;2.60;99.90
5901;DHT22;2976;49.764;9.796;2023-03-11T11:39:52;2.50;99.90
5901;DHT22;2976;49.764;9.796;2023-03-11T11:42:19;2.50;99.90
5901;DHT22;2976;49.764;9.796;2023-03-11T11:44:51;2.50;99.90
5901;DHT22;2976;49.764;9.796;2023-03-11T11:47:22;2.70;99.90
5901;DHT22;2976;49.764;9.796;2023-03-11T11:49:55;2.80;99.90
5901;DHT22;2976;49.764;9.796;2023-03-11T11:52:27;2.90;99.90
5901;DHT22;2976;49.764;9.796;2023-03-11T11:55:20;2.90;99.90
5901;DHT22;2976;49.764;9.796;2023-03-11T11:57:47;2.80;99.90
5901;DHT22;2976;49.764;9.796;2023-03-11T12:05:56;3.20;99.90
5901;DHT22;2976;49.764;9.796;2023-03-11T12:08:41;3.00;99.90
5901;DHT22;2976;49.764;9.796;2023-03-11T12:16:46;2.80;99.90
5901;DHT22;2976;49.764;9.796;2023-03-11T12:19:30;2.80;99.90
5901;DHT22;2976;49.764;9.796;2023-03-11T12:24:53;2.80;99.90
5901;DHT22;2976;49.764;9.796;2023-03-11T12:27:39;2.80;99.90
5901;DHT22;2976;49.764;9.796;2023-03-11T12:30:28;2.80;99.90
5901;DHT22;2976;49.764;9.796;2023-03-11T12:33:17;2.90;99.90
5901;DHT22;2976;49.764;9.796;2023-03-11T12:35:52;2.90;99.90
5901;DHT22;2976;49.764;9.796;2023-03-11T12:41:06;3.10;99.90
5901;DHT22;2976;49.764;9.796;2023-03-11T12:50:57;3.30;99.90
5901;DHT22;2976;49.764;9.796;2023-03-11T12:53:46;3.20;99.10
5901;DHT22;2976;49.764;9.796;2023-03-11T12:56:15;3.20;99.60
5901;DHT22;2976;49.764;9.796;2023-03-11T13:02:02;3.20;99.90
5901;DHT22;2976;49.764;9.796;2023-03-11T13:04:39;3.00;99.90
5901;DHT22;2976;49.764;9.796;2023-03-11T13:09:31;3.10;99.90
5901;DHT22;2976;49.764;9.796;2023-03-11T13:11:57;3.00;98.90
5901;DHT22;2976;49.764;9.796;2023-03-11T13:14:27;2.90;98.00
5901;DHT22;2976;49.764;9.796;2023-03-11T13:19:52;3.10;99.70
5901;DHT22;2976;49.764;9.796;2023-03-11T13:22:41;3.20;99.30
5901;DHT22;2976;49.764;9.796;2023-03-11T13:25:32;3.20;99.90
5901;DHT22;2976;49.764;9.796;2023-03-11T13:28:13;3.40;98.20
5901;DHT22;2976;49.764;9.796;2023-03-11T13:33:41;3.80;98.30
5901;DHT22;2976;49.764;9.796;2023-03-11T13:36:16;4.10;99.00
5901;DHT22;2976;49.764;9.796;2023-03-11T13:42:00;4.10;93.10
5901;DHT22;2976;49.764;9.796;2023-03-11T13:44:33;4.30;93.70
5901;DHT22;2976;49.764;9.796;2023-03-11T13:47:13;4.30;95.90
5901;DHT22;2976;49.764;9.796;2023-03-11T13:52:35;3.70;98.00
5901;DHT22;2976;49.764;9.796;2023-03-11T13:55:27;3.50;99.90
5901;DHT22;2976;49.764;9.796;2023-03-11T13:57:56;3.50;99.30
5901;DHT22;2976;49.764;9.796;2023-03-11T14:00:25;3.50;99.10
5901;DHT22;2976;49.764;9.796;2023-03-11T14:02:57;3.50;99.90
5901;DHT22;2976;49.764;9.796;2023-03-11T14:05:26;3.50;98.70
5901;DHT22;2976;49.764;9.796;2023-03-11T14:07:52;3.50;99.90
5901;DHT22;2976;49.764;9.796;2023-03-11T14:10:21;3.50;99.90
5901;DHT22;2976;49.764;9.796;2023-03-11T14:12:47;3.40;97.80
5901;DHT22;2976;49.764;9.796;2023-03-11T14:15:18;3.40;99.90
5901;DHT22;2976;49.764;9.796;2023-03-11T14:17:44;3.50;98.60
5901;DHT22;2976;49.764;9.796;2023-03-11T14:20:15;3.50;99.60
5901;DHT22;2976;49.764;9.796;2023-03-11T14:22:46;3.40;99.90
5901;DHT22;2976;49.764;9.796;2023-03-11T14:25:25;3.30;99.90
5901;DHT22;2976;49.764;9.796;2023-03-11T14:27:55;3.20;99.90
5901;DHT22;2976;49.764;9.796;2023-03-11T14:30:26;3.20;99.90
5901;DHT22;2976;49.764;9.796;2023-03-11T14:33:17;3.20;99.90
5901;DHT22;2976;49.764;9.796;2023-03-11T14:35:54;3.10;98.50
5901;DHT22;2976;49.764;9.796;2023-03-11T14:38:22;3.10;99.90
5901;DHT22;2976;49.764;9.796;2023-03-11T14:40:51;3.20;98.90
5901;DHT22;2976;49.764;9.796;2023-03-11T14:43:19;3.40;99.00
5901;DHT22;2976;49.764;9.796;2023-03-11T14:45:45;3.50;98.40
5901;DHT22;2976;49.764;9.796;2023-03-11T14:48:34;3.50;98.00
5901;DHT22;2976;49.764;9.796;2023-03-11T14:51:01;3.50;99.10
5901;DHT22;2976;49.764;9.796;2023-03-11T14:53:41;3.40;96.40
5901;DHT22;2976;49.764;9.796;2023-03-11T14:56:15;3.40;96.30
5901;DHT22;2976;49.764;9.796;2023-03-11T15:01:32;3.20;95.90
5901;DHT22;2976;49.764;9.796;2023-03-11T15:04:11;3.20;99.90
5901;DHT22;2976;49.764;9.796;2023-03-11T15:06:40;3.10;96.10
5901;DHT22;2976;49.764;9.796;2023-03-11T15:09:10;3.00;97.40
5901;DHT22;2976;49.764;9.796;2023-03-11T15:11:44;3.00;97.50
5901;DHT22;2976;49.764;9.796;2023-03-11T15:14:34;2.90;96.50
5901;DHT22;2976;49.764;9.796;2023-03-11T15:17:23;2.90;98.20
5901;DHT22;2976;49.764;9.796;2023-03-11T15:19:56;3.00;97.30
5901;DHT22;2976;49.764;9.796;2023-03-11T15:22:35;2.90;96.60
5901;DHT22;2976;49.764;9.796;2023-03-11T15:25:03;3.00;98.10
5901;DHT22;2976;49.764;9.796;2023-03-11T15:27:31;2.90;98.70
5901;DHT22;2976;49.764;9.796;2023-03-11T15:29:59;2.90;97.60
5901;DHT22;2976;49.764;9.796;2023-03-11T15:35:26;2.90;97.70
5901;DHT22;2976;49.764;9.796;2023-03-11T15:40:51;2.90;98.00
5901;DHT22;2976;49.764;9.796;2023-03-11T15:43:21;2.80;94.60
5901;DHT22;2976;49.764;9.796;2023-03-11T15:45:50;2.80;95.00
5901;DHT22;2976;49.764;9.796;2023-03-11T15:48:18;2.80;97.30
5901;DHT22;2976;49.764;9.796;2023-03-11T15:50:51;2.90;99.90
5901;DHT22;2976;49.764;9.796;2023-03-11T15:53:17;2.80;99.90
5901;DHT22;2976;49.764;9.796;2023-03-11T15:55:43;2.80;99.90
5901;DHT22;2976;49.764;9.796;2023-03-11T15:58:11;2.80;99.90
5901;DHT22;2976;49.764;9.796;2023-03-11T16:00:44;2.80;99.90
5901;DHT22;2976;49.764;9.796;2023-03-11T16:03:10;2.70;99.90
5901;DHT22;2976;49.764;9.796;2023-03-11T16:05:36;2.70;99.90
5901;DHT22;2976;49.764;9.796;2023-03-11T16:08:02;2.60;99.90
5901;DHT22;2976;49.764;9.796;2023-03-11T16:10:27;2.40;99.90
5901;DHT22;2976;49.764;9.796;2023-03-11T16:12:53;2.40;99.90
5901;DHT22;2976;49.764;9.796;2023-03-11T16:15:28;2.40;99.90
5901;DHT22;2976;49.764;9.796;2023-03-11T16:18:02;2.40;99.90
5901;DHT22;2976;49.764;9.796;2023-03-11T16:20:35;2.30;99.90
5901;DHT22;2976;49.764;9.796;2023-03-11T16:23:03;2.30;99.90
5901;DHT22;2976;49.764;9.796;2023-03-11T16:25:38;2.30;99.90
5901;DHT22;2976;49.764;9.796;2023-03-11T16:28:04;2.30;99.90
5901;DHT22;2976;49.764;9.796;2023-03-11T16:30:32;2.30;99.90
5901;DHT22;2976;49.764;9.796;2023-03-11T16:32:58;2.30;99.90
5901;DHT22;2976;49.764;9.796;2023-03-11T16:35:24;2.20;99.90
5901;DHT22;2976;49.764;9.796;2023-03-11T16:37:49;2.20;99.90
5901;DHT22;2976;49.764;9.796;2023-03-11T16:40:21;2.30;99.90
5901;DHT22;2976;49.764;9.796;2023-03-11T16:42:49;2.40;99.90
5901;DHT22;2976;49.764;9.796;2023-03-11T16:45:16;2.40;99.90
5901;DHT22;2976;49.764;9.796;2023-03-11T16:47:42;2.40;99.90
5901;DHT22;2976;49.764;9.796;2023-03-11T16:50:09;2.40;99.90
5901;DHT22;2976;49.764;9.796;2023-03-11T16:52:34;2.40;99.90
5901;DHT22;2976;49.764;9.796;2023-03-11T16:55:00;2.40;99.90
5901;DHT22;2976;49.764;9.796;2023-03-11T16:57:26;2.50;99.90
5901;DHT22;2976;49.764;9.796;2023-03-11T16:59:51;2.40;99.90
5901;DHT22;2976;49.764;9.796;2023-03-11T17:02:17;2.30;99.90
5901;DHT22;2976;49.764;9.796;2023-03-11T17:04:43;2.30;99.90
5901;DHT22;2976;49.764;9.796;2023-03-11T17:07:09;2.20;99.90
5901;DHT22;2976;49.764;9.796;2023-03-11T17:09:35;2.20;99.90
5901;DHT22;2976;49.764;9.796;2023-03-11T17:12:01;2.10;99.90
5901;DHT22;2976;49.764;9.796;2023-03-11T17:14:27;2.00;99.90
5901;DHT22;2976;49.764;9.796;2023-03-11T17:16:53;1.90;99.90
5901;DHT22;2976;49.764;9.796;2023-03-11T17:19:19;1.80;99.90
5901;DHT22;2976;49.764;9.796;2023-03-11T17:21:44;1.70;99.90
5901;DHT22;2976;49.764;9.796;2023-03-11T17:24:10;1.60;99.90
5901;DHT22;2976;49.764;9.796;2023-03-11T17:26:36;1.50;99.90
5901;DHT22;2976;49.764;9.796;2023-03-11T17:29:02;1.40;99.90
5901;DHT22;2976;49.764;9.796;2023-03-11T17:31:28;1.30;99.90
5901;DHT22;2976;49.764;9.796;2023-03-11T17:33:54;1.20;99.90
5901;DHT22;2976;49.764;9.796;2023-03-11T17:36:20;1.10;99.90
5901;DHT22;2976;49.764;9.796;2023-03-11T17:38:46;1.10;99.90
5901;DHT22;2976;49.764;9.796;2023-03-11T17:41:14;1.10;99.90
5901;DHT22;2976;49.764;9.796;2023-03-11T17:43:41;1.00;99.90
5901;DHT22;2976;49.764;9.796;2023-03-11T17:46:12;0.90;99.90
5901;DHT22;2976;49.764;9.796;2023-03-11T17:48:42;0.80;99.90
5901;DHT22;2976;49.764;9.796;2023-03-11T17:51:13;0.70;99.90
5901;DHT22;2976;49.764;9.796;2023-03-11T17:53:40;0.60;99.90
5901;DHT22;2976;49.764;9.796;2023-03-11T17:56:06;0.60;99.90
5901;DHT22;2976;49.764;9.796;2023-03-11T17:58:32;0.70;99.90
5901;DHT22;2976;49.764;9.796;2023-03-11T18:01:01;0.70;99.90
5901;DHT22;2976;49.764;9.796;2023-03-11T18:03:27;0.70;99.90
5901;DHT22;2976;49.764;9.796;2023-03-11T18:05:58;0.60;99.90